createdAt,value
2023-09-28T00:01:15.982Z,99703.28
2023-09-28T00:03:48.649Z,99729.00
2023-09-28T00:06:15.994Z,99734.06
2023-09-28T00:08:45.494Z,99729.22
2023-09-28T00:11:12.681Z,99717.56
2023-09-28T00:13:40.877Z,99734.97
2023-09-28T00:16:08.726Z,99770.47
2023-09-28T00:18:40.098Z,99766.41
2023-09-28T00:21:08.052Z,99782.78
2023-09-28T00:23:37.805Z,99797.66
2023-09-28T00:26:08.477Z,99811.31
2023-09-28T00:28:36.635Z,99832.78
2023-09-28T00:31:06.423Z,99858.72
2023-09-28T00:33:34.709Z,99863.44
2023-09-28T00:36:01.832Z,99889.38
2023-09-28T00:38:30.097Z,99903.44
2023-09-28T00:40:57.408Z,99925.66
2023-09-28T00:43:29.682Z,99946.69
2023-09-28T00:45:56.917Z,99977.47
2023-09-28T00:48:26.248Z,99983.97
2023-09-28T00:50:53.928Z,99988.84
2023-09-28T00:53:22.712Z,100010.06
2023-09-28T00:55:50.392Z,100012.06
2023-09-28T00:58:18.687Z,100027.34
2023-09-28T01:00:47.549Z,100027.16
2023-09-28T01:03:16.162Z,100037.16
2023-09-28T01:05:43.544Z,100048.97
2023-09-28T01:08:14.320Z,100062.63
2023-09-28T01:10:42.468Z,100067.94
2023-09-28T01:13:13.679Z,100087.53
2023-09-28T01:15:42.843Z,100095.31
2023-09-28T01:18:11.688Z,100106.31
2023-09-28T01:20:41.381Z,100123.03
2023-09-28T01:23:10.335Z,100112.41
2023-09-28T01:25:40.018Z,100131.59
2023-09-28T01:28:08.522Z,100144.66
2023-09-28T01:30:37.364Z,100144.88
2023-09-28T01:33:06.516Z,100148.13
2023-09-28T01:35:33.627Z,100144.06
2023-09-28T01:38:12.376Z,100143.66
2023-09-28T01:40:41.045Z,100130.00
2023-09-28T01:43:09.855Z,100139.38
2023-09-28T01:45:38.064Z,100137.59
2023-09-28T01:48:07.418Z,100142.28
2023-09-28T01:50:34.599Z,100136.78
2023-09-28T01:53:03.681Z,100153.34
2023-09-28T01:55:30.996Z,100159.44
2023-09-28T01:58:01.292Z,100170.50
2023-09-28T02:00:28.435Z,100189.69
2023-09-28T02:02:58.080Z,100191.72
2023-09-28T02:05:26.762Z,100199.44
2023-09-28T02:07:55.020Z,100209.25
2023-09-28T02:10:22.324Z,100230.69
2023-09-28T02:12:51.973Z,100236.19
2023-09-28T02:15:20.635Z,100241.69
2023-09-28T02:17:49.443Z,100257.63
2023-09-28T02:20:18.264Z,100272.91
2023-09-28T02:22:48.151Z,100279.22
2023-09-28T02:25:19.324Z,100266.38
2023-09-28T02:27:48.356Z,100265.75
2023-09-28T02:30:18.365Z,100251.28
2023-09-28T02:32:49.280Z,100246.78
2023-09-28T02:35:18.311Z,100258.44
2023-09-28T02:37:50.338Z,100271.50
2023-09-28T02:40:19.260Z,100284.94
2023-09-28T02:42:49.597Z,100304.53
2023-09-28T02:45:17.276Z,100293.31
2023-09-28T02:47:48.438Z,100294.13
2023-09-28T02:50:18.793Z,100282.69
2023-09-28T02:52:49.086Z,100283.31
2023-09-28T02:55:19.684Z,100286.56
2023-09-28T02:57:49.343Z,100279.66
2023-09-28T03:00:21.250Z,100305.94
2023-09-28T03:02:52.976Z,100324.13
2023-09-28T03:05:22.283Z,100332.69
2023-09-28T03:07:50.989Z,100330.03
2023-09-28T03:10:18.376Z,100329.22
2023-09-28T03:12:48.460Z,100333.09
2023-09-28T03:15:15.990Z,100345.75
2023-09-28T03:17:44.700Z,100338.19
2023-09-28T03:20:15.989Z,100349.59
2023-09-28T03:22:44.908Z,100346.34
2023-09-28T03:25:17.925Z,100353.69
2023-09-28T03:27:45.858Z,100357.16
2023-09-28T03:30:15.650Z,100360.63
2023-09-28T03:32:43.401Z,100372.03
2023-09-28T03:35:13.916Z,100364.31
2023-09-28T03:37:43.173Z,100379.16
2023-09-28T03:40:13.241Z,100378.34
2023-09-28T03:42:42.830Z,100380.81
2023-09-28T03:45:12.671Z,100396.91
2023-09-28T03:47:41.906Z,100385.47
2023-09-28T03:50:11.853Z,100385.47
2023-09-28T03:52:42.813Z,100382.44
2023-09-28T03:55:11.949Z,100376.94
2023-09-28T03:57:40.603Z,100390.41
2023-09-28T04:00:13.713Z,100383.84
2023-09-28T04:02:43.310Z,100392.03
2023-09-28T04:05:11.963Z,100386.72
2023-09-28T04:07:42.343Z,100403.66
2023-09-28T04:10:11.643Z,100401.81
2023-09-28T04:12:40.070Z,100412.41
2023-09-28T04:15:10.860Z,100407.72
2023-09-28T04:17:41.975Z,100407.53
2023-09-28T04:20:14.481Z,100411.19
2023-09-28T04:22:44.184Z,100411.59
2023-09-28T04:25:13.064Z,100397.31
2023-09-28T04:27:41.246Z,100403.47
2023-09-28T04:30:11.326Z,100408.13
2023-09-28T04:32:39.631Z,100414.47
2023-09-28T04:35:12.260Z,100407.53
2023-09-28T04:37:40.877Z,100419.78
2023-09-28T04:40:12.500Z,100431.78
2023-09-28T04:42:41.119Z,100446.69
2023-09-28T04:45:11.397Z,100432.81
2023-09-28T04:47:39.714Z,100435.66
2023-09-28T04:50:09.684Z,100435.22
2023-09-28T04:52:37.922Z,100435.63
2023-09-28T04:55:08.580Z,100428.06
2023-09-28T04:57:38.395Z,100433.94
2023-09-28T05:00:09.979Z,100434.53
2023-09-28T05:02:41.155Z,100437.63
2023-09-28T05:05:12.302Z,100431.28
2023-09-28T05:07:40.629Z,100438.38
2023-09-28T05:10:10.129Z,100443.69
2023-09-28T05:12:40.527Z,100438.38
2023-09-28T05:15:10.623Z,100442.28
2023-09-28T05:17:38.821Z,100430.03
2023-09-28T05:20:09.240Z,100424.91
2023-09-28T05:22:37.478Z,100433.72
2023-09-28T05:25:06.644Z,100427.16
2023-09-28T05:27:35.140Z,100429.00
2023-09-28T05:30:06.006Z,100436.75
2023-09-28T05:32:34.250Z,100438.75
2023-09-28T05:35:03.783Z,100438.75
2023-09-28T05:37:31.920Z,100445.91
2023-09-28T05:40:01.751Z,100454.66
2023-09-28T05:42:29.893Z,100460.81
2023-09-28T05:44:58.135Z,100466.09
2023-09-28T05:47:27.699Z,100464.44
2023-09-28T05:49:56.081Z,100484.66
2023-09-28T05:52:24.343Z,100498.88
2023-09-28T05:54:52.643Z,100503.56
2023-09-28T05:57:22.322Z,100508.44
2023-09-28T05:59:50.448Z,100506.59
2023-09-28T06:02:19.515Z,100505.59
2023-09-28T06:04:50.534Z,100513.34
2023-09-28T06:07:18.654Z,100517.03
2023-09-28T06:09:46.784Z,100505.41
2023-09-28T06:12:14.901Z,100502.56
2023-09-28T06:14:43.091Z,100511.31
2023-09-28T06:17:11.276Z,100521.09
2023-09-28T06:19:51.504Z,100522.72
2023-09-28T06:22:27.310Z,100526.41
2023-09-28T06:24:56.265Z,100532.50
2023-09-28T06:27:26.646Z,100543.09
2023-09-28T06:29:55.133Z,100545.97
2023-09-28T06:32:23.956Z,100543.09
2023-09-28T06:34:52.384Z,100550.81
2023-09-28T06:37:20.651Z,100550.63
2023-09-28T06:39:50.177Z,100555.09
2023-09-28T06:42:34.479Z,100554.94
2023-09-28T06:45:05.395Z,100532.72
2023-09-28T06:47:46.517Z,100530.69
2023-09-28T06:50:22.008Z,100519.25
2023-09-28T06:52:50.303Z,100522.94
2023-09-28T06:55:19.962Z,100529.25
2023-09-28T06:57:48.110Z,100543.09
2023-09-28T07:00:18.467Z,100540.66
2023-09-28T07:02:48.908Z,100541.09
2023-09-28T07:05:17.873Z,100554.53
2023-09-28T07:07:47.227Z,100556.59
2023-09-28T07:10:15.618Z,100560.69
2023-09-28T07:12:45.116Z,100556.00
2023-09-28T07:15:13.683Z,100549.69
2023-09-28T07:17:42.052Z,100536.25
2023-09-28T07:20:11.138Z,100538.69
2023-09-28T07:22:39.558Z,100536.06
2023-09-28T07:25:10.503Z,100544.81
2023-09-28T07:27:39.151Z,100546.28
2023-09-28T07:30:09.845Z,100540.97
2023-09-28T07:32:38.255Z,100531.78
2023-09-28T07:35:07.934Z,100525.69
2023-09-28T07:37:36.196Z,100527.31
2023-09-28T07:40:05.729Z,100528.31
2023-09-28T07:42:33.847Z,100529.94
2023-09-28T07:45:01.969Z,100540.19
2023-09-28T07:47:31.687Z,100534.66
2023-09-28T07:50:00.344Z,100539.97
2023-09-28T07:52:28.881Z,100549.38
2023-09-28T07:54:57.858Z,100543.69
2023-09-28T07:57:28.131Z,100542.66
2023-09-28T07:59:58.038Z,100535.97
2023-09-28T08:02:26.249Z,100535.97
2023-09-28T08:04:56.765Z,100541.88
2023-09-28T08:07:25.678Z,100552.28
2023-09-28T08:09:53.896Z,100554.56
2023-09-28T08:12:22.000Z,100557.22
2023-09-28T08:14:50.149Z,100563.16
2023-09-28T08:17:18.395Z,100562.13
2023-09-28T08:19:46.953Z,100560.91
2023-09-28T08:22:16.604Z,100561.91
2023-09-28T08:24:44.896Z,100558.06
2023-09-28T08:27:13.342Z,100557.25
2023-09-28T08:29:41.491Z,100540.94
2023-09-28T08:32:09.816Z,100536.66
2023-09-28T08:34:39.195Z,100534.81
2023-09-28T08:37:07.995Z,100546.03
2023-09-28T08:39:38.200Z,100544.22
2023-09-28T08:42:12.821Z,100550.72
2023-09-28T08:44:42.728Z,100554.84
2023-09-28T08:47:17.825Z,100543.19
2023-09-28T08:49:49.793Z,100558.94
2023-09-28T08:52:19.297Z,100560.34
2023-09-28T08:54:49.730Z,100561.97
2023-09-28T08:57:18.497Z,100549.16
2023-09-28T08:59:47.629Z,100557.72
2023-09-28T09:02:17.197Z,100544.88
2023-09-28T09:04:46.684Z,100556.91
2023-09-28T09:07:15.750Z,100555.28
2023-09-28T09:09:47.631Z,100565.91
2023-09-28T09:12:18.004Z,100570.19
2023-09-28T09:14:46.162Z,100549.41
2023-09-28T09:17:14.293Z,100577.75
2023-09-28T09:19:44.375Z,100569.78
2023-09-28T09:22:26.492Z,100566.13
2023-09-28T09:24:58.098Z,100559.41
2023-09-28T09:27:32.201Z,100556.56
2023-09-28T09:30:00.886Z,100562.66
2023-09-28T09:32:30.044Z,100551.66
2023-09-28T09:34:58.303Z,100550.63
2023-09-28T09:37:26.795Z,100554.09
2023-09-28T09:39:55.262Z,100581.25
2023-09-28T09:42:31.059Z,100584.91
2023-09-28T09:44:59.118Z,100580.84
2023-09-28T09:47:27.755Z,100578.81
2023-09-28T09:49:57.702Z,100582.31
2023-09-28T09:52:28.198Z,100571.47
2023-09-28T09:54:56.339Z,100582.72
2023-09-28T09:57:28.465Z,100574.16
2023-09-28T10:00:00.494Z,100567.22
2023-09-28T10:02:29.941Z,100556.63
2023-09-28T10:05:00.576Z,100544.13
2023-09-28T10:07:46.620Z,100540.44
2023-09-28T10:10:16.907Z,100530.88
2023-09-28T10:12:45.127Z,100543.53
2023-09-28T10:15:14.915Z,100539.25
2023-09-28T10:17:44.421Z,100543.09
2023-09-28T10:20:14.918Z,100541.91
2023-09-28T10:22:43.663Z,100539.03
2023-09-28T10:25:13.920Z,100529.66
2023-09-28T10:27:45.886Z,100521.06
2023-09-28T10:30:23.518Z,100510.00
2023-09-28T10:32:53.810Z,100515.59
2023-09-28T10:35:30.155Z,100515.78
2023-09-28T10:38:20.882Z,100504.13
2023-09-28T10:41:05.251Z,100520.47
2023-09-28T10:43:36.079Z,100523.94
2023-09-28T10:46:06.570Z,100525.78
2023-09-28T10:48:41.018Z,100509.44
2023-09-28T10:51:13.774Z,100512.09
2023-09-28T10:53:42.780Z,100507.78
2023-09-28T10:56:12.134Z,100497.38
2023-09-28T10:58:42.314Z,100500.41
2023-09-28T11:01:12.289Z,100505.13
2023-09-28T11:03:41.649Z,100513.09
2023-09-28T11:06:11.510Z,100516.56
2023-09-28T11:08:41.158Z,100517.38
2023-09-28T11:11:09.473Z,100502.47
2023-09-28T11:13:37.997Z,100496.34
2023-09-28T11:16:06.508Z,100485.72
2023-09-28T11:18:37.649Z,100480.19
2023-09-28T11:21:05.951Z,100481.81
2023-09-28T11:23:34.117Z,100485.72
2023-09-28T11:26:02.588Z,100484.69
2023-09-28T11:28:31.233Z,100487.56
2023-09-28T11:31:09.311Z,100470.78
2023-09-28T11:33:40.228Z,100472.44
2023-09-28T11:36:09.472Z,100476.09
2023-09-28T11:38:37.611Z,100472.03
2023-09-28T11:41:06.824Z,100476.09
2023-09-28T11:43:36.323Z,100479.38
2023-09-28T11:46:05.227Z,100468.75
2023-09-28T11:48:34.110Z,100460.56
2023-09-28T11:51:05.330Z,100463.44
2023-09-28T11:53:33.662Z,100471.41
2023-09-28T11:56:03.359Z,100468.56
2023-09-28T11:58:34.797Z,100464.84
2023-09-28T12:01:04.176Z,100480.63
2023-09-28T12:03:32.393Z,100478.81
2023-09-28T12:06:00.736Z,100479.78
2023-09-28T12:08:31.323Z,100473.50
2023-09-28T12:11:00.712Z,100467.16
2023-09-28T12:13:28.955Z,100468.78
2023-09-28T12:15:57.809Z,100465.94
2023-09-28T12:18:26.089Z,100458.16
2023-09-28T12:20:54.328Z,100453.66
2023-09-28T12:23:22.502Z,100453.47
2023-09-28T12:25:52.207Z,100450.00
2023-09-28T12:28:20.474Z,100458.97
2023-09-28T12:30:48.659Z,100452.03
2023-09-28T12:33:17.011Z,100437.13
2023-09-28T12:35:45.196Z,100439.78
2023-09-28T12:38:13.582Z,100441.63
2023-09-28T12:40:41.781Z,100450.78
2023-09-28T12:43:12.455Z,100442.00
2023-09-28T12:45:40.613Z,100449.97
2023-09-28T12:48:09.727Z,100442.00
2023-09-28T12:50:38.539Z,100433.22
2023-09-28T12:53:06.791Z,100438.53
2023-09-28T12:55:36.156Z,100434.47
2023-09-28T12:58:05.069Z,100419.53
2023-09-28T13:00:34.723Z,100412.59
2023-09-28T13:03:08.499Z,100412.81
2023-09-28T13:05:38.880Z,100419.75
2023-09-28T13:08:08.805Z,100411.78
2023-09-28T13:10:37.119Z,100410.56
2023-09-28T13:13:07.162Z,100400.13
2023-09-28T13:15:36.744Z,100404.63
2023-09-28T13:18:08.673Z,100414.22
2023-09-28T13:20:40.458Z,100402.38
2023-09-28T13:23:09.074Z,100404.22
2023-09-28T13:25:37.316Z,100409.09
2023-09-28T13:28:09.197Z,100397.88
2023-09-28T13:30:40.417Z,100394.81
2023-09-28T13:33:10.526Z,100403.41
2023-09-28T13:35:39.115Z,100396.06
2023-09-28T13:38:09.528Z,100402.78
2023-09-28T13:40:37.914Z,100396.25
2023-09-28T13:43:07.179Z,100397.88
2023-09-28T13:45:35.932Z,100403.38
2023-09-28T13:48:06.920Z,100400.09
2023-09-28T13:50:37.239Z,100394.13
2023-09-28T13:53:06.562Z,100393.09
2023-09-28T13:55:35.376Z,100389.22
2023-09-28T13:58:03.774Z,100381.84
2023-09-28T14:00:35.995Z,100385.94
2023-09-28T14:03:07.074Z,100390.41
2023-09-28T14:05:36.491Z,100375.91
2023-09-28T14:08:05.109Z,100380.81
2023-09-28T14:10:33.654Z,100383.25
2023-09-28T14:13:02.666Z,100387.50
2023-09-28T14:15:31.502Z,100381.81
2023-09-28T14:17:59.703Z,100375.47
2023-09-28T14:20:30.095Z,100379.59
2023-09-28T14:22:58.289Z,100375.50
2023-09-28T14:25:26.420Z,100372.84
2023-09-28T14:27:55.437Z,100367.75
2023-09-28T14:30:23.788Z,100365.69
2023-09-28T14:32:51.981Z,100355.50
2023-09-28T14:35:20.438Z,100349.38
2023-09-28T14:37:50.004Z,100346.72
2023-09-28T14:40:18.711Z,100346.31
2023-09-28T14:42:47.429Z,100331.41
2023-09-28T14:45:16.002Z,100323.22
2023-09-28T14:47:44.833Z,100318.72
2023-09-28T14:50:14.972Z,100313.41
2023-09-28T14:52:43.533Z,100316.66
2023-09-28T14:55:13.231Z,100315.84
2023-09-28T14:57:41.530Z,100307.06
2023-09-28T15:00:13.890Z,100292.97
2023-09-28T15:02:44.668Z,100294.59
2023-09-28T15:05:13.137Z,100288.25
2023-09-28T15:07:41.356Z,100293.78
2023-09-28T15:10:11.005Z,100299.47
2023-09-28T15:12:41.104Z,100287.63
2023-09-28T15:15:09.619Z,100300.13
2023-09-28T15:17:38.008Z,100294.81
2023-09-28T15:20:10.941Z,100279.09
2023-09-28T15:22:39.553Z,100282.56
2023-09-28T15:25:08.216Z,100281.53
2023-09-28T15:27:37.005Z,100282.31
2023-09-28T15:30:08.055Z,100277.81
2023-09-28T15:32:36.504Z,100275.78
2023-09-28T15:35:05.023Z,100270.47
2023-09-28T15:37:33.262Z,100262.50
2023-09-28T15:40:05.012Z,100264.75
2023-09-28T15:42:33.489Z,100261.53
2023-09-28T15:45:01.907Z,100263.34
2023-09-28T15:47:32.695Z,100259.50
2023-09-28T15:50:04.936Z,100256.84
2023-09-28T15:52:33.526Z,100259.31
2023-09-28T15:55:01.910Z,100264.44
2023-09-28T15:57:31.464Z,100266.47
2023-09-28T15:59:59.821Z,100258.50
2023-09-28T16:02:28.084Z,100264.19
2023-09-28T16:04:58.139Z,100261.53
2023-09-28T16:07:26.285Z,100259.69
2023-09-28T16:09:54.703Z,100249.69
2023-09-28T16:12:23.860Z,100253.75
2023-09-28T16:14:52.994Z,100256.00
2023-09-28T16:17:22.512Z,100259.84
2023-09-28T16:19:50.739Z,100255.34
2023-09-28T16:22:21.987Z,100261.25
2023-09-28T16:24:50.101Z,100253.88
2023-09-28T16:27:18.348Z,100253.66
2023-09-28T16:29:46.539Z,100248.94
2023-09-28T16:32:14.732Z,100246.28
2023-09-28T16:34:43.404Z,100234.84
2023-09-28T16:37:11.496Z,100225.47
2023-09-28T16:39:41.033Z,100223.00
2023-09-28T16:42:09.204Z,100219.78
2023-09-28T16:44:37.418Z,100221.63
2023-09-28T16:47:05.924Z,100232.66
2023-09-28T16:49:34.327Z,100228.81
2023-09-28T16:52:02.497Z,100228.22
2023-09-28T16:54:30.615Z,100229.03
2023-09-28T16:57:00.233Z,100233.75
2023-09-28T16:59:28.428Z,100235.78
2023-09-28T17:01:56.740Z,100240.69
2023-09-28T17:04:25.037Z,100239.06
2023-09-28T17:06:53.289Z,100254.19
2023-09-28T17:09:21.362Z,100256.84
2023-09-28T17:11:49.712Z,100257.50
2023-09-28T17:14:19.276Z,100259.31
2023-09-28T17:16:47.497Z,100270.16
2023-09-28T17:19:15.795Z,100267.31
2023-09-28T17:21:44.295Z,100266.34
2023-09-28T17:24:12.499Z,100249.38
2023-09-28T17:26:40.881Z,100233.63
2023-09-28T17:29:09.221Z,100221.22
2023-09-28T17:31:38.725Z,100232.25
2023-09-28T17:34:06.852Z,100235.34
2023-09-28T17:36:34.935Z,100230.47
2023-09-28T17:39:03.044Z,100237.38
2023-09-28T17:41:31.215Z,100237.38
2023-09-28T17:43:59.328Z,100248.63
2023-09-28T17:46:27.498Z,100240.47
2023-09-28T17:48:57.190Z,100238.84
2023-09-28T17:51:25.799Z,100241.72
2023-09-28T17:53:54.231Z,100253.13
2023-09-28T17:56:22.685Z,100271.94
2023-09-28T17:58:52.591Z,100271.13
2023-09-28T18:01:20.845Z,100277.47
2023-09-28T18:03:49.134Z,100278.47
2023-09-28T18:06:18.692Z,100284.59
2023-09-28T18:08:48.013Z,100290.75
2023-09-28T18:11:16.332Z,100283.41
2023-09-28T18:13:44.450Z,100283.41
2023-09-28T18:16:12.653Z,100287.69
2023-09-28T18:18:41.028Z,100291.59
2023-09-28T18:21:09.253Z,100308.53
2023-09-28T18:23:38.990Z,100310.38
2023-09-28T18:26:07.285Z,100312.44
2023-09-28T18:28:37.812Z,100315.28
2023-09-28T18:31:06.467Z,100319.78
2023-09-28T18:33:35.886Z,100326.72
2023-09-28T18:36:04.265Z,100332.88
2023-09-28T18:38:32.640Z,100334.31
2023-09-28T18:41:02.162Z,100342.66
2023-09-28T18:43:30.293Z,100335.13
2023-09-28T18:45:58.478Z,100338.78
2023-09-28T18:48:26.918Z,100345.53
2023-09-28T18:50:55.034Z,100343.50
2023-09-28T18:53:24.463Z,100339.41
2023-09-28T18:55:54.483Z,100341.84
2023-09-28T18:58:24.056Z,100342.06
2023-09-28T19:00:52.771Z,100350.63
2023-09-28T19:03:21.002Z,100357.56
2023-09-28T19:05:49.379Z,100336.56
2023-09-28T19:08:17.977Z,100343.69
2023-09-28T19:10:46.166Z,100347.78
2023-09-28T19:13:15.042Z,100329.03
2023-09-28T19:15:44.571Z,100334.72
2023-09-28T19:18:12.765Z,100324.72
2023-09-28T19:20:41.650Z,100322.28
2023-09-28T19:23:09.926Z,100323.50
2023-09-28T19:25:38.792Z,100322.88
2023-09-28T19:28:07.601Z,100331.63
2023-09-28T19:30:35.791Z,100322.44
2023-09-28T19:33:05.883Z,100323.25
2023-09-28T19:35:34.563Z,100325.31
2023-09-28T19:38:03.603Z,100327.97
2023-09-28T19:40:31.681Z,100333.66
2023-09-28T19:42:59.908Z,100327.53
2023-09-28T19:45:28.235Z,100335.69
2023-09-28T19:47:56.501Z,100332.03
2023-09-28T19:50:26.281Z,100335.69
2023-09-28T19:52:54.426Z,100337.31
2023-09-28T19:55:22.581Z,100334.69
2023-09-28T19:57:51.357Z,100336.09
2023-09-28T20:00:19.625Z,100328.97
2023-09-28T20:02:47.810Z,100331.59
2023-09-28T20:05:17.774Z,100337.94
2023-09-28T20:07:47.456Z,100350.16
2023-09-28T20:10:16.129Z,100349.13
2023-09-28T20:12:44.466Z,100351.19
2023-09-28T20:15:12.968Z,100359.31
2023-09-28T20:17:41.469Z,100365.03
2023-09-28T20:20:11.389Z,100360.94
2023-09-28T20:25:13.448Z,100355.63
2023-09-28T20:27:41.573Z,100364.19
2023-09-28T20:30:10.516Z,100373.34
2023-09-28T20:32:38.675Z,100377.38
2023-09-28T20:35:07.765Z,100369.66
2023-09-28T20:37:35.910Z,100372.09
2023-09-28T20:40:04.076Z,100370.25
2023-09-28T20:42:33.582Z,100371.06
2023-09-28T20:45:02.007Z,100374.75
2023-09-28T20:47:30.921Z,100384.94
2023-09-28T20:50:01.092Z,100387.94
2023-09-28T20:52:29.494Z,100398.94
2023-09-28T20:54:57.686Z,100407.25
2023-09-28T20:57:25.784Z,100414.97
2023-09-28T20:59:57.388Z,100416.22
2023-09-28T21:02:26.633Z,100425.56
2023-09-28T21:04:54.814Z,100422.28
2023-09-28T21:07:22.985Z,100425.94
2023-09-28T21:09:51.117Z,100430.63
2023-09-28T21:12:19.233Z,100435.28
2023-09-28T21:14:47.388Z,100436.50
2023-09-28T21:17:16.939Z,100442.97
2023-09-28T21:19:45.186Z,100439.72
2023-09-28T21:22:13.312Z,100442.75
2023-09-28T21:24:41.476Z,100443.78
2023-09-28T21:27:09.614Z,100445.78
2023-09-28T21:29:37.793Z,100450.25
2023-09-28T21:32:06.221Z,100446.19
2023-09-28T21:34:35.730Z,100443.91
2023-09-28T21:37:03.908Z,100447.56
2023-09-28T21:39:32.042Z,100436.34
2023-09-28T21:42:00.368Z,100444.69
2023-09-28T21:44:28.630Z,100441.41
2023-09-28T21:46:56.789Z,100445.88
2023-09-28T21:49:24.870Z,100445.44
2023-09-28T21:51:54.643Z,100454.41
2023-09-28T21:54:22.762Z,100445.19
2023-09-28T21:56:50.848Z,100454.16
2023-09-28T21:59:19.080Z,100455.16
2023-09-28T22:01:48.299Z,100446.75
2023-09-28T22:04:16.515Z,100446.75
2023-09-28T22:06:44.706Z,100450.44
2023-09-28T22:09:14.404Z,100458.16
2023-09-28T22:11:42.496Z,100457.53
2023-09-28T22:14:11.412Z,100463.00
2023-09-28T22:16:40.143Z,100466.25
2023-09-28T22:19:08.331Z,100466.25
2023-09-28T22:21:36.428Z,100476.00
2023-09-28T22:24:05.041Z,100475.38
2023-09-28T22:26:34.625Z,100488.00
2023-09-28T22:29:03.106Z,100493.06
2023-09-28T22:31:31.247Z,100495.06
2023-09-28T22:33:59.547Z,100507.31
2023-09-28T22:36:27.775Z,100508.94
2023-09-28T22:38:56.086Z,100511.16
2023-09-28T22:41:24.443Z,100510.13
2023-09-28T22:43:54.276Z,100512.59
2023-09-28T22:46:22.447Z,100513.59
2023-09-28T22:48:50.830Z,100511.97
2023-09-28T22:51:18.993Z,100512.59
2023-09-28T22:53:47.275Z,100514.44
2023-09-28T22:56:15.396Z,100518.06
2023-09-28T22:58:43.568Z,100519.91
2023-09-28T23:01:13.190Z,100523.56
2023-09-28T23:03:41.504Z,100521.28
2023-09-28T23:06:09.708Z,100522.28
2023-09-28T23:08:37.836Z,100533.06
2023-09-28T23:11:06.352Z,100535.72
2023-09-28T23:13:36.872Z,100549.94
2023-09-28T23:16:06.843Z,100554.41
2023-09-28T23:18:36.731Z,100554.41
2023-09-28T23:21:07.122Z,100555.25
2023-09-28T23:23:36.267Z,100564.97
2023-09-28T23:26:07.158Z,100573.31
2023-09-28T23:28:35.807Z,100575.94
2023-09-28T23:31:04.804Z,100582.88
2023-09-28T23:33:33.195Z,100582.69
2023-09-28T23:36:05.971Z,100590.59
2023-09-28T23:38:34.298Z,100590.00
2023-09-28T23:41:05.992Z,100610.53
2023-09-28T23:43:35.008Z,100610.34
2023-09-28T23:46:04.269Z,100613.34
2023-09-28T23:48:34.642Z,100618.63
2023-09-28T23:51:06.905Z,100610.06
2023-09-28T23:53:35.431Z,100629.19
2023-09-28T23:56:05.003Z,100633.47
2023-09-28T23:58:33.110Z,100626.75
